createdAt,value
2024-01-20T00:02:50.269Z,29.80
2024-01-20T00:05:02.356Z,26.30
2024-01-20T00:07:14.953Z,25.70
2024-01-20T00:09:34.432Z,32.70
2024-01-20T00:11:50.397Z,31.60
2024-01-20T00:14:02.309Z,32.00
2024-01-20T00:16:14.706Z,31.40
2024-01-20T00:18:27.016Z,30.70
2024-01-20T00:20:39.516Z,29.50
2024-01-20T00:22:51.593Z,26.00
2024-01-20T00:25:04.676Z,28.20
2024-01-20T00:27:17.437Z,29.70
2024-01-20T00:29:29.834Z,27.30
2024-01-20T00:31:42.302Z,24.00
2024-01-20T00:33:54.852Z,30.50
2024-01-20T00:36:07.162Z,25.30
2024-01-20T00:38:19.374Z,26.80
2024-01-20T00:40:31.860Z,28.70
2024-01-20T00:42:43.956Z,24.70
2024-01-20T00:44:55.542Z,30.00
2024-01-20T00:47:08.408Z,24.00
2024-01-20T00:49:20.557Z,24.30
2024-01-20T00:51:32.349Z,26.60
2024-01-20T00:53:44.246Z,26.90
2024-01-20T00:55:56.223Z,24.10
2024-01-20T00:58:08.435Z,23.90
2024-01-20T01:00:20.530Z,26.20
2024-01-20T01:02:32.425Z,23.90
2024-01-20T01:04:45.081Z,23.70
2024-01-20T01:06:57.027Z,23.20
2024-01-20T01:09:09.460Z,23.30
2024-01-20T01:11:20.934Z,24.50
2024-01-20T01:13:37.063Z,24.20
2024-01-20T01:15:49.005Z,23.50
2024-01-20T01:18:01.401Z,24.50
2024-01-20T01:20:13.667Z,20.50
2024-01-20T01:22:25.700Z,21.80
2024-01-20T01:24:39.023Z,20.60
2024-01-20T01:26:51.202Z,20.90
2024-01-20T01:29:03.233Z,22.10
2024-01-20T01:31:15.026Z,21.40
2024-01-20T01:33:26.838Z,23.30
2024-01-20T01:35:38.897Z,18.90
2024-01-20T01:37:50.597Z,23.80
2024-01-20T01:40:02.730Z,21.20
2024-01-20T01:42:14.573Z,24.00
2024-01-20T01:44:26.613Z,25.50
2024-01-20T01:46:38.313Z,20.00
2024-01-20T01:48:50.399Z,23.70
2024-01-20T01:51:05.451Z,22.60
2024-01-20T01:53:18.289Z,22.80
2024-01-20T01:55:30.941Z,22.60
2024-01-20T01:57:44.101Z,21.30
2024-01-20T01:59:56.122Z,28.60
2024-01-20T02:02:08.156Z,21.90
2024-01-20T02:04:20.214Z,17.00
2024-01-20T02:06:32.589Z,16.90
2024-01-20T02:08:44.553Z,19.60
2024-01-20T02:10:58.382Z,17.20
2024-01-20T02:13:11.925Z,22.20
2024-01-20T02:15:25.122Z,20.30
2024-01-20T02:17:37.174Z,21.10
2024-01-20T02:19:49.079Z,19.50
2024-01-20T02:22:00.714Z,21.90
2024-01-20T02:24:13.608Z,21.10
2024-01-20T02:26:27.739Z,20.80
2024-01-20T02:28:39.257Z,20.00
2024-01-20T02:30:51.359Z,17.90
2024-01-20T02:33:03.811Z,17.20
2024-01-20T02:35:17.617Z,23.50
2024-01-20T02:37:29.384Z,20.20
2024-01-20T02:39:43.324Z,20.50
2024-01-20T02:41:55.331Z,22.10
2024-01-20T02:44:10.180Z,20.40
2024-01-20T02:46:22.076Z,21.60
2024-01-20T02:48:34.454Z,21.20
2024-01-20T02:50:46.473Z,23.20
2024-01-20T02:52:58.261Z,22.50
2024-01-20T02:55:10.259Z,21.10
2024-01-20T02:57:22.512Z,22.20
2024-01-20T02:59:34.550Z,21.50
2024-01-20T03:01:46.754Z,38.10
2024-01-20T03:03:58.790Z,51.10
2024-01-20T03:06:10.985Z,43.90
2024-01-20T03:08:23.051Z,37.60
2024-01-20T03:10:35.250Z,76.90
2024-01-20T03:12:47.350Z,105.70
2024-01-20T03:14:59.066Z,103.20
2024-01-20T03:17:10.849Z,85.30
2024-01-20T03:19:22.990Z,59.90
2024-01-20T03:21:35.608Z,41.40
2024-01-20T03:23:47.535Z,34.10
2024-01-20T03:25:59.525Z,35.90
2024-01-20T03:28:11.014Z,24.80
2024-01-20T03:30:22.662Z,25.30
2024-01-20T03:32:35.209Z,31.80
2024-01-20T03:34:47.129Z,26.00
2024-01-20T03:36:58.986Z,41.70
2024-01-20T03:39:11.035Z,91.80
2024-01-20T03:41:23.082Z,77.30
2024-01-20T03:43:35.077Z,38.20
2024-01-20T03:45:47.486Z,31.80
2024-01-20T03:47:59.027Z,41.00
2024-01-20T03:50:11.618Z,28.00
2024-01-20T03:52:23.675Z,25.80
2024-01-20T03:54:35.370Z,21.40
2024-01-20T03:56:47.144Z,24.70
2024-01-20T03:59:00.262Z,23.70
2024-01-20T04:01:12.408Z,25.20
2024-01-20T04:03:24.489Z,30.00
2024-01-20T04:05:36.556Z,24.60
2024-01-20T04:07:48.757Z,25.80
2024-01-20T04:10:01.069Z,23.30
2024-01-20T04:12:13.015Z,23.40
2024-01-20T04:14:25.060Z,21.20
2024-01-20T04:16:37.969Z,25.50
2024-01-20T04:18:50.262Z,23.60
2024-01-20T04:21:03.312Z,18.50
2024-01-20T04:23:15.277Z,17.40
2024-01-20T04:25:27.273Z,26.20
2024-01-20T04:27:41.948Z,22.50
2024-01-20T04:29:53.939Z,21.60
2024-01-20T04:32:06.434Z,21.30
2024-01-20T04:34:18.645Z,29.50
2024-01-20T04:36:30.404Z,24.50
2024-01-20T04:38:42.313Z,24.10
2024-01-20T04:40:54.620Z,22.40
2024-01-20T04:43:06.502Z,23.60
2024-01-20T04:45:18.685Z,21.60
2024-01-20T04:47:33.676Z,22.10
2024-01-20T04:49:45.766Z,56.50
2024-01-20T04:52:01.755Z,22.90
2024-01-20T04:54:13.739Z,24.30
2024-01-20T04:56:25.755Z,26.20
2024-01-20T04:58:38.869Z,20.80
2024-01-20T05:00:51.021Z,22.60
2024-01-20T05:03:03.005Z,23.00
2024-01-20T05:05:15.416Z,22.60
2024-01-20T05:07:27.148Z,21.80
2024-01-20T05:09:39.056Z,22.00
2024-01-20T05:11:50.838Z,22.50
2024-01-20T05:14:02.934Z,24.20
2024-01-20T05:16:14.719Z,25.40
2024-01-20T05:18:26.400Z,20.50
2024-01-20T05:20:39.219Z,24.20
2024-01-20T05:22:51.420Z,21.40
2024-01-20T05:25:05.052Z,23.40
2024-01-20T05:27:16.724Z,24.80
2024-01-20T05:29:28.765Z,39.20
2024-01-20T05:31:40.524Z,24.10
2024-01-20T05:33:52.742Z,21.50
2024-01-20T05:36:05.256Z,20.60
2024-01-20T05:38:17.233Z,22.00
2024-01-20T05:40:29.129Z,24.20
2024-01-20T05:42:41.029Z,27.60
2024-01-20T05:44:53.256Z,31.70
2024-01-20T05:47:04.946Z,28.10
2024-01-20T05:49:16.829Z,31.30
2024-01-20T05:51:28.545Z,24.80
2024-01-20T05:53:41.392Z,44.30
2024-01-20T05:55:52.999Z,55.80
2024-01-20T05:58:04.882Z,48.50
2024-01-20T06:00:18.543Z,31.90
2024-01-20T06:02:32.042Z,24.40
2024-01-20T06:04:44.422Z,22.30
2024-01-20T06:06:56.747Z,26.20
2024-01-20T06:09:08.733Z,22.50
2024-01-20T06:11:20.638Z,26.30
2024-01-20T06:13:32.939Z,28.30
2024-01-20T06:15:44.830Z,23.70
2024-01-20T06:17:56.823Z,24.20
2024-01-20T06:20:09.254Z,24.10
2024-01-20T06:22:21.140Z,27.30
2024-01-20T06:24:33.556Z,27.40
2024-01-20T06:26:45.522Z,26.40
2024-01-20T06:28:57.409Z,22.70
2024-01-20T06:31:09.122Z,25.70
2024-01-20T06:33:21.597Z,25.20
2024-01-20T06:35:33.703Z,24.60
2024-01-20T06:37:45.695Z,28.50
2024-01-20T06:39:57.703Z,27.30
2024-01-20T06:42:12.572Z,25.50
2024-01-20T06:44:24.549Z,26.20
2024-01-20T06:46:36.652Z,26.10
2024-01-20T06:48:48.915Z,25.00
2024-01-20T06:51:02.212Z,24.50
2024-01-20T06:53:13.852Z,25.20
2024-01-20T06:55:26.486Z,27.40
2024-01-20T06:57:38.128Z,26.50
2024-01-20T06:59:50.044Z,25.10
2024-01-20T07:02:02.266Z,33.60
2024-01-20T07:04:14.353Z,33.80
2024-01-20T07:06:26.468Z,25.80
2024-01-20T07:08:38.532Z,33.50
2024-01-20T07:10:51.144Z,28.30
2024-01-20T07:13:03.347Z,26.00
2024-01-20T07:15:15.477Z,32.70
2024-01-20T07:17:27.619Z,29.50
2024-01-20T07:19:39.587Z,34.80
2024-01-20T07:21:51.321Z,42.00
2024-01-20T07:24:03.339Z,27.70
2024-01-20T07:26:16.762Z,29.20
2024-01-20T07:28:28.809Z,28.70
2024-01-20T07:30:40.756Z,33.10
2024-01-20T07:32:52.565Z,32.00
2024-01-20T07:35:05.927Z,32.50
2024-01-20T07:37:20.032Z,29.60
2024-01-20T07:39:32.664Z,29.60
2024-01-20T07:41:45.116Z,28.50
2024-01-20T07:43:57.012Z,28.20
2024-01-20T07:46:09.462Z,73.60
2024-01-20T07:48:22.231Z,80.30
2024-01-20T07:50:34.223Z,50.30
2024-01-20T07:52:45.913Z,110.30
2024-01-20T07:54:57.712Z,59.00
2024-01-20T07:57:09.748Z,60.60
2024-01-20T07:59:21.454Z,89.50
2024-01-20T08:01:33.317Z,106.20
2024-01-20T08:03:45.330Z,51.50
2024-01-20T08:05:57.210Z,33.40
2024-01-20T08:08:09.057Z,38.80
2024-01-20T08:10:21.977Z,34.50
2024-01-20T08:12:34.328Z,38.50
2024-01-20T08:14:46.472Z,49.20
2024-01-20T08:16:58.669Z,27.90
2024-01-20T08:19:10.624Z,29.20
2024-01-20T08:21:23.345Z,44.20
2024-01-20T08:23:35.377Z,27.00
2024-01-20T08:25:47.776Z,31.20
2024-01-20T08:27:59.268Z,29.20
2024-01-20T08:30:12.349Z,28.10
2024-01-20T08:32:24.288Z,27.00
2024-01-20T08:34:36.388Z,26.00
2024-01-20T08:36:49.385Z,27.10
2024-01-20T08:39:02.947Z,26.20
2024-01-20T08:41:14.810Z,30.20
2024-01-20T08:43:26.802Z,31.40
2024-01-20T08:45:38.755Z,27.40
2024-01-20T08:47:55.863Z,25.60
2024-01-20T08:50:08.781Z,28.40
2024-01-20T08:52:20.747Z,25.70
2024-01-20T08:54:32.885Z,30.20
2024-01-20T08:56:47.107Z,28.30
2024-01-20T08:59:00.222Z,30.10
2024-01-20T09:01:13.526Z,27.90
2024-01-20T09:03:27.006Z,62.40
2024-01-20T09:05:39.880Z,57.80
2024-01-20T09:07:52.674Z,54.00
2024-01-20T09:10:06.267Z,36.50
2024-01-20T09:12:19.607Z,34.00
2024-01-20T09:14:32.759Z,33.40
2024-01-20T09:16:45.666Z,32.50
2024-01-20T09:18:57.925Z,26.40
2024-01-20T09:21:13.462Z,28.40
2024-01-20T09:23:25.331Z,27.80
2024-01-20T09:25:37.425Z,23.50
2024-01-20T09:27:49.724Z,24.60
2024-01-20T09:30:02.754Z,37.80
2024-01-20T09:32:15.144Z,25.80
2024-01-20T09:34:27.545Z,29.40
2024-01-20T09:36:39.864Z,32.80
2024-01-20T09:38:52.275Z,30.30
2024-01-20T09:41:10.984Z,30.30
2024-01-20T09:43:22.975Z,28.80
2024-01-20T09:45:40.259Z,30.80
2024-01-20T09:47:52.409Z,28.90
2024-01-20T09:50:06.139Z,29.80
2024-01-20T09:52:30.849Z,23.20
2024-01-20T09:54:54.402Z,31.90
2024-01-20T09:57:06.534Z,37.20
2024-01-20T09:59:19.825Z,31.40
2024-01-20T10:01:32.513Z,27.90
2024-01-20T10:03:45.050Z,27.80
2024-01-20T10:05:59.256Z,31.70
2024-01-20T10:08:12.206Z,29.80
2024-01-20T10:10:24.505Z,28.70
2024-01-20T10:12:37.554Z,26.40
2024-01-20T10:14:49.312Z,26.00
2024-01-20T10:17:01.357Z,25.80
2024-01-20T10:19:13.267Z,24.80
2024-01-20T10:21:25.031Z,24.80
2024-01-20T10:23:39.030Z,27.00
2024-01-20T10:26:18.721Z,27.10
2024-01-20T10:28:31.196Z,24.10
2024-01-20T10:30:44.028Z,27.20
2024-01-20T10:33:08.308Z,24.60
2024-01-20T10:35:22.889Z,19.50
2024-01-20T10:37:36.637Z,26.80
2024-01-20T10:39:48.710Z,20.70
2024-01-20T10:42:03.699Z,24.10
2024-01-20T10:44:17.868Z,24.50
2024-01-20T10:46:32.635Z,28.70
2024-01-20T10:48:51.808Z,29.30
2024-01-20T10:51:10.316Z,38.50
2024-01-20T10:53:24.878Z,29.00
2024-01-20T10:55:37.540Z,23.80
2024-01-20T10:57:51.541Z,23.50
2024-01-20T11:00:06.033Z,24.70
2024-01-20T11:02:18.179Z,26.30
2024-01-20T11:04:35.647Z,47.00
2024-01-20T11:06:48.248Z,25.70
2024-01-20T11:09:02.583Z,25.00
2024-01-20T11:11:15.335Z,31.40
2024-01-20T11:13:28.015Z,28.70
2024-01-20T11:15:41.568Z,29.20
2024-01-20T11:17:53.685Z,37.40
2024-01-20T11:20:09.170Z,34.50
2024-01-20T11:22:35.531Z,30.40
2024-01-20T11:24:47.888Z,23.50
2024-01-20T11:27:04.548Z,26.10
2024-01-20T11:29:16.832Z,23.50
2024-01-20T11:31:31.944Z,30.80
2024-01-20T11:33:44.373Z,24.80
2024-01-20T11:35:56.469Z,31.50
2024-01-20T11:38:08.983Z,28.30
2024-01-20T11:40:20.568Z,27.90
2024-01-20T11:42:33.717Z,37.90
2024-01-20T11:44:45.275Z,36.90
2024-01-20T11:46:57.002Z,28.40
2024-01-20T11:49:08.883Z,32.90
2024-01-20T11:51:22.231Z,29.00
2024-01-20T11:53:35.400Z,26.60
2024-01-20T11:56:01.380Z,26.50
2024-01-20T11:58:13.510Z,25.10
2024-01-20T12:00:25.418Z,24.60
2024-01-20T12:02:38.330Z,26.90
2024-01-20T12:04:50.561Z,27.00
2024-01-20T12:07:02.960Z,23.90
2024-01-20T12:09:14.853Z,26.80
2024-01-20T12:11:27.791Z,28.40
2024-01-20T12:13:39.630Z,26.70
2024-01-20T12:15:52.457Z,25.30
2024-01-20T12:18:05.407Z,27.60
2024-01-20T12:20:17.352Z,27.90
2024-01-20T12:22:32.643Z,25.60
2024-01-20T12:24:51.201Z,26.90
2024-01-20T12:27:04.040Z,23.60
2024-01-20T12:29:16.333Z,26.60
2024-01-20T12:31:28.591Z,26.40
2024-01-20T12:33:41.120Z,28.60
2024-01-20T12:35:52.999Z,33.00
2024-01-20T12:38:07.077Z,28.30
2024-01-20T12:40:20.258Z,23.50
2024-01-20T12:42:31.963Z,24.70
2024-01-20T12:44:43.691Z,24.50
2024-01-20T12:46:56.556Z,28.20
2024-01-20T12:49:09.197Z,33.30
2024-01-20T12:51:21.431Z,25.90
2024-01-20T12:53:34.590Z,24.70
2024-01-20T12:55:50.573Z,22.70
2024-01-20T12:58:02.565Z,26.90
2024-01-20T13:00:15.413Z,27.00
2024-01-20T13:02:27.211Z,26.20
2024-01-20T13:04:41.026Z,24.10
2024-01-20T13:06:52.970Z,23.90
2024-01-20T13:09:05.367Z,27.30
2024-01-20T13:11:18.012Z,26.50
2024-01-20T13:13:30.286Z,23.00
2024-01-20T13:15:42.081Z,26.90
2024-01-20T13:17:54.981Z,25.40
2024-01-20T13:20:08.673Z,25.20
2024-01-20T13:22:20.445Z,26.30
2024-01-20T13:24:32.562Z,27.00
2024-01-20T13:26:44.715Z,25.00
2024-01-20T13:28:59.706Z,21.70
2024-01-20T13:31:12.011Z,24.80
2024-01-20T13:33:26.416Z,23.90
2024-01-20T13:35:39.108Z,25.90
2024-01-20T13:37:51.775Z,24.60
2024-01-20T13:40:06.407Z,23.40
2024-01-20T13:42:18.256Z,24.50
2024-01-20T13:44:30.329Z,20.40
2024-01-20T13:46:42.218Z,25.50
2024-01-20T13:48:54.073Z,28.50
2024-01-20T13:51:05.808Z,22.20
2024-01-20T13:53:18.295Z,29.70
2024-01-20T13:55:30.507Z,24.80
2024-01-20T13:57:42.644Z,25.30
2024-01-20T13:59:54.592Z,27.80
2024-01-20T14:02:06.282Z,24.20
2024-01-20T14:04:18.222Z,26.30
2024-01-20T14:06:30.563Z,22.20
2024-01-20T14:08:42.977Z,22.80
2024-01-20T14:10:54.984Z,22.10
2024-01-20T14:13:07.184Z,26.80
2024-01-20T14:15:19.799Z,26.60
2024-01-20T14:17:31.919Z,24.60
2024-01-20T14:19:44.160Z,25.60
2024-01-20T14:21:56.585Z,25.30
2024-01-20T14:24:09.229Z,27.20
2024-01-20T14:26:21.601Z,25.70
2024-01-20T14:28:33.346Z,24.10
2024-01-20T14:30:46.119Z,25.10
2024-01-20T14:32:58.333Z,38.60
2024-01-20T14:35:10.730Z,46.80
2024-01-20T14:37:22.601Z,33.80
2024-01-20T14:39:34.211Z,33.50
2024-01-20T14:41:46.695Z,43.80
2024-01-20T14:43:58.690Z,68.40
2024-01-20T14:46:10.789Z,54.20
2024-01-20T14:48:22.813Z,44.10
2024-01-20T14:50:35.140Z,34.10
2024-01-20T14:52:47.486Z,26.40
2024-01-20T14:54:59.991Z,29.80
2024-01-20T14:57:11.989Z,23.50
2024-01-20T14:59:23.829Z,23.30
2024-01-20T15:01:37.352Z,26.20
2024-01-20T15:03:49.618Z,27.50
2024-01-20T15:06:01.773Z,30.00
2024-01-20T15:08:13.855Z,24.90
2024-01-20T15:10:25.706Z,26.20
2024-01-20T15:12:37.718Z,23.10
2024-01-20T15:14:50.176Z,21.90
2024-01-20T15:17:01.784Z,19.10
2024-01-20T15:19:13.946Z,21.40
2024-01-20T15:21:25.913Z,21.00
2024-01-20T15:23:37.671Z,25.50
2024-01-20T15:25:51.289Z,35.30
2024-01-20T15:28:05.084Z,26.80
2024-01-20T15:30:17.201Z,26.80
2024-01-20T15:32:29.015Z,21.30
2024-01-20T15:34:41.536Z,23.90
2024-01-20T15:36:53.217Z,33.00
2024-01-20T15:39:05.107Z,37.70
2024-01-20T15:41:17.209Z,42.10
2024-01-20T15:43:29.753Z,42.30
2024-01-20T15:45:41.377Z,37.30
2024-01-20T15:47:53.127Z,27.60
2024-01-20T15:50:05.560Z,25.90
2024-01-20T15:52:17.590Z,31.30
2024-01-20T15:54:29.531Z,32.00
2024-01-20T15:56:42.807Z,30.80
2024-01-20T15:58:54.229Z,31.00
2024-01-20T16:01:06.271Z,30.60
2024-01-20T16:03:18.455Z,28.10
2024-01-20T16:05:30.479Z,27.30
2024-01-20T16:07:42.470Z,22.70
2024-01-20T16:09:54.612Z,25.40
2024-01-20T16:12:07.494Z,26.10
2024-01-20T16:14:23.827Z,20.60
2024-01-20T16:16:35.824Z,24.20
2024-01-20T16:18:47.750Z,31.40
2024-01-20T16:21:02.804Z,31.20
2024-01-20T16:23:18.118Z,32.50
2024-01-20T16:25:30.095Z,35.50
2024-01-20T16:27:42.355Z,56.90
2024-01-20T16:29:54.294Z,50.20
2024-01-20T16:32:10.857Z,48.30
2024-01-20T16:34:22.698Z,35.00
2024-01-20T16:36:35.268Z,30.60
2024-01-20T16:38:47.394Z,24.90
2024-01-20T16:41:00.825Z,29.30
2024-01-20T16:43:12.716Z,29.10
2024-01-20T16:45:25.593Z,26.30
2024-01-20T16:47:37.846Z,28.00
2024-01-20T16:49:49.732Z,30.80
2024-01-20T16:52:03.715Z,31.30
2024-01-20T16:54:15.880Z,36.10
2024-01-20T16:56:27.960Z,32.30
2024-01-20T16:58:40.074Z,31.70
2024-01-20T17:00:51.839Z,28.30
2024-01-20T17:03:05.165Z,25.90
2024-01-20T17:05:18.977Z,27.70
2024-01-20T17:07:30.909Z,28.40
2024-01-20T17:09:44.086Z,32.60
2024-01-20T17:11:56.125Z,35.00
2024-01-20T17:14:08.429Z,29.70
2024-01-20T17:16:20.852Z,28.90
2024-01-20T17:18:36.274Z,34.30
2024-01-20T17:20:48.207Z,32.50
2024-01-20T17:23:04.495Z,33.00
2024-01-20T17:25:16.694Z,30.10
2024-01-20T17:27:29.226Z,30.40
2024-01-20T17:29:42.811Z,33.00
2024-01-20T17:32:02.006Z,30.10
2024-01-20T17:34:16.579Z,28.20
2024-01-20T17:36:28.538Z,30.30
2024-01-20T17:38:41.276Z,29.90
2024-01-20T17:40:52.848Z,30.10
2024-01-20T17:43:04.949Z,24.90
2024-01-20T17:45:18.015Z,28.40
2024-01-20T17:47:30.338Z,30.10
2024-01-20T17:49:42.795Z,29.00
2024-01-20T17:51:55.291Z,29.30
2024-01-20T17:54:08.853Z,27.30
2024-01-20T17:56:21.631Z,24.20
2024-01-20T17:58:34.455Z,28.20
2024-01-20T18:00:46.599Z,30.60
2024-01-20T18:02:58.580Z,26.10
2024-01-20T18:05:10.674Z,26.10
2024-01-20T18:07:22.819Z,31.10
2024-01-20T18:09:35.136Z,29.60
2024-01-20T18:11:49.979Z,28.60
2024-01-20T18:14:02.299Z,33.10
2024-01-20T18:16:13.813Z,31.20
2024-01-20T18:18:26.415Z,34.50
2024-01-20T18:20:38.270Z,32.00
2024-01-20T18:22:51.028Z,40.00
2024-01-20T18:25:03.388Z,35.90
2024-01-20T18:27:15.610Z,29.70
2024-01-20T18:29:27.886Z,27.00
2024-01-20T18:31:39.939Z,28.00
2024-01-20T18:33:52.062Z,27.40
2024-01-20T18:36:05.174Z,25.10
2024-01-20T18:38:17.198Z,26.50
2024-01-20T18:40:29.298Z,25.60
2024-01-20T18:42:41.203Z,26.20
2024-01-20T18:44:54.307Z,24.90
2024-01-20T18:47:10.912Z,24.50
2024-01-20T18:49:22.846Z,21.80
2024-01-20T18:51:34.872Z,29.00
2024-01-20T18:53:46.381Z,26.50
2024-01-20T18:55:59.100Z,27.40
2024-01-20T18:58:13.269Z,20.70
2024-01-20T19:00:25.510Z,24.20
2024-01-20T19:02:37.534Z,23.00
2024-01-20T19:04:50.008Z,25.60
2024-01-20T19:07:06.036Z,25.30
2024-01-20T19:09:17.866Z,24.20
2024-01-20T19:11:29.463Z,26.80
2024-01-20T19:13:41.507Z,27.00
2024-01-20T19:15:55.649Z,27.40
2024-01-20T19:18:08.318Z,24.00
2024-01-20T19:20:25.202Z,27.40
2024-01-20T19:22:38.295Z,25.00
2024-01-20T19:24:50.708Z,26.70
2024-01-20T19:27:02.426Z,26.30
2024-01-20T19:29:14.276Z,29.10
2024-01-20T19:31:26.272Z,26.40
2024-01-20T19:33:46.724Z,31.50
2024-01-20T19:35:58.877Z,28.10
2024-01-20T19:38:11.118Z,30.70
2024-01-20T19:40:23.266Z,29.80
2024-01-20T19:42:35.273Z,27.70
2024-01-20T19:44:48.693Z,30.90
2024-01-20T19:47:00.579Z,34.10
2024-01-20T19:49:13.926Z,31.00
2024-01-20T19:51:27.782Z,29.90
2024-01-20T19:53:39.741Z,36.30
2024-01-20T19:55:52.514Z,34.80
2024-01-20T19:58:04.226Z,36.10
2024-01-20T20:00:21.031Z,33.40
2024-01-20T20:02:36.215Z,38.90
2024-01-20T20:04:48.535Z,37.80
2024-01-20T20:07:01.370Z,31.60
2024-01-20T20:09:14.384Z,30.10
2024-01-20T20:11:26.400Z,33.60
2024-01-20T20:13:38.752Z,31.50
2024-01-20T20:15:51.017Z,33.70
2024-01-20T20:18:03.096Z,34.10
2024-01-20T20:20:15.760Z,30.70
2024-01-20T20:22:27.652Z,32.50
2024-01-20T20:24:40.309Z,29.40
2024-01-20T20:26:57.631Z,33.10
2024-01-20T20:29:14.460Z,30.70
2024-01-20T20:31:28.350Z,26.60
2024-01-20T20:33:42.376Z,30.00
2024-01-20T20:35:55.092Z,36.00
2024-01-20T20:38:07.724Z,28.20
2024-01-20T20:40:20.507Z,31.60
2024-01-20T20:42:33.580Z,33.30
2024-01-20T20:44:46.856Z,28.50
2024-01-20T20:47:01.959Z,29.90
2024-01-20T20:49:14.434Z,30.10
2024-01-20T20:51:25.922Z,29.50
2024-01-20T20:53:38.208Z,35.80
2024-01-20T20:55:50.716Z,37.70
2024-01-20T20:58:02.502Z,30.80
2024-01-20T21:00:16.856Z,29.20
2024-01-20T21:02:29.122Z,26.70
2024-01-20T21:04:40.797Z,26.00
2024-01-20T21:06:52.905Z,30.20
2024-01-20T21:09:05.024Z,28.60
2024-01-20T21:11:16.727Z,30.20
2024-01-20T21:13:28.832Z,27.90
2024-01-20T21:15:42.077Z,28.60
2024-01-20T21:17:54.070Z,30.60
2024-01-20T21:20:08.084Z,27.20
2024-01-20T21:22:21.614Z,32.60
2024-01-20T21:24:33.457Z,23.90
2024-01-20T21:26:45.305Z,32.10
2024-01-20T21:28:57.188Z,32.20
2024-01-20T21:31:10.072Z,25.90
2024-01-20T21:33:22.821Z,27.00
2024-01-20T21:35:34.914Z,27.30
2024-01-20T21:37:46.609Z,27.80
2024-01-20T21:39:58.597Z,32.20
2024-01-20T21:42:16.197Z,29.40
2024-01-20T21:44:28.126Z,30.20
2024-01-20T21:46:40.420Z,31.70
2024-01-20T21:48:52.553Z,29.60
2024-01-20T21:51:05.079Z,27.50
2024-01-20T21:53:17.836Z,29.50
2024-01-20T21:55:30.040Z,26.50
2024-01-20T21:57:42.931Z,26.40
2024-01-20T21:59:56.053Z,25.60
2024-01-20T22:02:08.069Z,25.60
2024-01-20T22:04:20.472Z,28.10
2024-01-20T22:06:32.938Z,24.00
2024-01-20T22:08:44.336Z,29.00
2024-01-20T22:10:56.475Z,29.80
2024-01-20T22:13:08.199Z,31.40
2024-01-20T22:15:20.593Z,29.50
2024-01-20T22:17:32.292Z,30.60
2024-01-20T22:19:44.042Z,32.00
2024-01-20T22:21:55.637Z,32.50
2024-01-20T22:24:07.756Z,32.20
2024-01-20T22:26:20.919Z,28.60
2024-01-20T22:28:32.247Z,27.00
2024-01-20T22:30:44.347Z,27.60
2024-01-20T22:32:57.597Z,26.60
2024-01-20T22:35:09.623Z,25.70
2024-01-20T22:37:21.647Z,29.30
2024-01-20T22:39:41.607Z,26.10
2024-01-20T22:41:53.700Z,22.90
2024-01-20T22:44:08.927Z,27.60
2024-01-20T22:46:20.871Z,26.40
2024-01-20T22:48:36.939Z,30.30
2024-01-20T22:50:49.870Z,30.30
2024-01-20T22:53:02.490Z,29.50
2024-01-20T22:55:14.413Z,29.10
2024-01-20T22:57:26.157Z,28.20
2024-01-20T22:59:38.204Z,26.40
2024-01-20T23:01:50.390Z,26.40
2024-01-20T23:04:02.948Z,25.30
2024-01-20T23:06:16.053Z,26.20
2024-01-20T23:08:28.124Z,24.00
2024-01-20T23:10:40.741Z,27.30
2024-01-20T23:12:53.848Z,25.40
2024-01-20T23:15:08.359Z,27.10
2024-01-20T23:17:20.786Z,27.30
2024-01-20T23:19:33.127Z,29.80
2024-01-20T23:21:45.394Z,27.00
2024-01-20T23:23:58.253Z,42.10
2024-01-20T23:26:15.612Z,30.20
2024-01-20T23:28:30.570Z,30.70
2024-01-20T23:30:46.790Z,29.40
2024-01-20T23:33:01.483Z,27.30
2024-01-20T23:35:13.569Z,28.80
2024-01-20T23:37:25.287Z,31.50
2024-01-20T23:39:37.732Z,28.10
2024-01-20T23:42:33.883Z,27.80
2024-01-20T23:44:46.242Z,29.60
2024-01-20T23:47:49.015Z,28.70
2024-01-20T23:50:01.748Z,28.90
2024-01-20T23:52:13.601Z,24.60
2024-01-20T23:54:25.349Z,29.50
2024-01-20T23:56:39.095Z,29.30
2024-01-20T23:58:53.031Z,26.20
